Timeline UpdatesTrip UpdatesNews PostsPvt Posts♥♥Travel TipsAdmin PostsConv PostsFollowed PostsChat RequestsBlog PostsPNR Posts

Disclaimer
Search
 
 
Sat Dec 20, 2014 04:58:34 ISTHomeTrainsΣChainsAtlasPNRForumGalleryNewsFAQTripsMembersLoginFeedback
No Recent News for this Train
Other Trains in the News **new
Latest...
..
Sun Sep 15, 2013 (05:04PM)
⇐ Return Journey: Train# 11039

11040/Maharashtra Express

Time-Table HAS CHANGED.
Sep 02 2014 (12:27AM)
Change Departure Station:
Change Arrival Station:
Post a Train Travel TipPost a Train Travel Tip **new
Post a Comment/Question/Picture/VideoPost a Comment/Question/Picture/Video
Pantry/Catering
✕ NO Pantry Car
✓ Catering Avbl
Loco/Rake Reversals
PUNE/Pune Junction (6); DD/Daund Junction (7);
RSA - Rake Sharing
11023/11024 Sahyadri Express
Rake/Coach Composition
Coach Composition From G-BSL-->> Loco,S9(G-DD),SLR, GEN, GEN, A1, B1, S8, S7, S6, S5, S4, S3, S2, S1, GEN, SLR; Coach Composition From BSL-DD-->>Loco,S9,SLR, GEN, GEN, A1, B1, S8, S7, S6, S5, S4, S3, S2, S1, GEN, SLR ,S10 ,S11; Coach Composition From DD-PUNE-->>Loco-S11-S10, SLR ,GEN, S1 To S8 ,B1 ,A1...
Read more...
,GEN ,GEN ,SLR; Coach Composition FromPUNE-KOP-->>Loco,SLR, GEN, GEN, A1, B1, S8, S7, S6, S5, S4, S3, S2, S1, GEN, SLR ,S10 ,S11
Loco
G-BSL: BSL WAP-4 BSL-KOP: PUNE/GY/GTL WDM-3D
News    PNR    Forum    Time-Table    Availability    Fare Chart    Map    Arr/Dep History    Trips    Gallery    ΣChains    X/O    Timeline    
Travel Time: 1h 35m    2 halts    Distance: 76 km    Avg Speed: 48 km/hr
Type: Mail/Express
Zone: CR/Central
Departs @ 03:00 (Avg 14m late)
Platform# 2
SMTWTFS
Daund Junction/DD 
Arrives @ 04:35 (Avg 11m late)
Platform# 3
SMTWTFS
Pune Junction/PUNE 

2 halts. 13 intermediate Stations between Daund Junction and Pune Junction

Show ALL intermediate Stations  Show Old Time-Table

#TrkCodeStation NameX/OArrivesAvgDepartsAvgHaltPFDay#KmSpeedElevZoneAddress
1/==/GGondia Junction (7)  -08:20+151-944.588316mSECRGondia 441601, Maharashtra
2/==/TROTirora (3)  08:40+1008:42+102m--1-915.276282mSECRDist Gondia, Maharashtra
3/==/TMRTumsar Road (5)X  08:58+909:00+92m31-894.883267mSECRDistt. Bhandara, Maharashtra
4/==/BRDBhandara Road (3)  09:13+1109:15+112m--1-876.993266mSECRState Highway 252 Bhandara District, Maharashtra
5/==/KPKamptee (3)X  09:46+1509:48+152m--1-829.035290mSECRKamptee, Maharashtra
6/==/ITRItwari (3)XO  10:06+1510:08+162m--1-818.57306mSECRNagpur, Maharashtra
7|--|NGPNagpur Junction (8)X  10:40+410:55+1415m51-814.723314mCRNagpur 440001, Maharashtra
8/==/AJNIAjni (3)X  11:03+2111:04+231m21-811.776310mCRNagpur 440003, Maharashtra
9/==/SEGMSewagram Junction (5)X  12:02+2312:03+251m--1-738.523279mCRWardha, Maharashtra
10/==/WRWardha Junction (4)X  12:10+2212:13+223m--1-735.881289mCRWardha 442001, Maharashtra
11/==/PLOPulgaon Junction (3)O  12:35+2512:36+261m21-706.367273mCRPulgaon, Maharashtra
12/==/DMNDhamangaon (2)  12:54+2512:55+261m--1-686.363300mCRDhamangaon, Maharashtra
13/==/CNDChandur (2)XO  13:11+2313:12+241m--1-669.630331mCRAmravati Distt, Maharashtra
14/==/BDBadnera Junction (4)X  14:10+614:15+75m11-640.990335mCRBadnera (Amravati) 444701, Maharashtra
15/==/MZRMurtizapur (3)  14:43+1314:45+142m11-599.189303mCRMurtajapur, Maharashtra
16/==/AKAkola Junction (7)X  15:10+2015:15+205m11-561.977284mCRAkola-444001, Maharashtra
17/==/SEGShegaon (2)  15:44+2715:45+301m11-524.783281mCRShegaon 444203, Maharashtra
18/==/JMJalamb Junction (3)X  15:54+3215:55+331m--1-512.382259mCRJalamb, Maharashtra
19/==/NNNandura (2)X  16:04+3416:05+351m--1-500.170267mCRNandura, Maharashtra
20/==/MKUMalkapur (2)  16:29+3316:30+341m--1-472.262252mCRMalkapur, Maharashtra
21/==/BDWDBodwad (2)  16:49+3316:50+341m--1-452.675294mCRBodwad, Maharashtra
22/==/VNAVarangaon (3)  17:04+3517:05+351m--1-435.030220mCRVarangaon, Maharashtra
23/==/BSLBhusaval Junction (8)X17:30+2617:50+2520m41-422.360208mCRBhusaval 425201, Maharashtra
24/==/JLJalgaon Junction (4)XO  18:14+2818:15+301m31-398.299213mCRJalgaon 425001, Maharashtra
25/==/PCPachora Junction (4)X  18:44+4218:45+441m11-350.579264mCRPachora 424201, Maharashtra
26/==/CSNChalisgaon Junction (3)  19:19+4219:20+431m11-305.687352mCRChalisgaon 424101, Maharashtra
27/==/NGNNandgaon (3)  19:49+5119:50+521m11-263.551476mCRNandgaon, Maharashtra
28/==/MMRManmad Junction (6)X  20:20+4520:25+505m41-238.127580mCRManmad 423104, Maharashtra
29/--/YLYeola (2)X  21:29+3721:30+491m11-209.546553mCRYeola, Maharashtra
30/--/KPGKopargaon (2)  21:48+4221:50+1:112m21-195.933508mCRKopargaon 423601, Maharashtra
31/--/PBPuntamba Junction (2)XO  22:34+1:0322:35+1:061m21-171.636501mCRPuntamba, Maharashtra
32/--/BAPBelapur (2)  23:09+5223:10+551m21-151.246541mCRShrirampur, Maharashtra
33/--/ANGAhmadnagar (2)X  00:37+3800:42+385m12-84.241650mCRAhmednagar 414001, Maharashtra
34%==%DDDaund Junction (7)»XO↵¶02:45+303:00+1415m220.045521mCRNew Daund Dist. Pune 413801, Maharashtra
35%==/KDGKedgaon (2)  03:29+1903:30+191m1221.580544mCRDist. Pune 412203, Maharashtra
36/==/URIUruli (2)X  03:49+2003:50+211m1246.838553mCRDist. Pune 412202, Maharashtra
37/==/PUNEPune Junction (6)•O04:40 04:35+1104:50+1610 15m3275.623556mCRPune 411001, Maharashtra
38|-=/GPRGhorpuri (2)  04:56+2704:57+271m--277.964558mCRPune, Maharashtra
39|--|JJRJejuri (1)  05:49+3505:50+371m12133.742697mCRDist. Pune 412303, Maharashtra
40|--|NIRANira (1)O  06:28+3506:30+362m12160.351553mCRDist. Pune 412102, Maharashtra
41|--|LNNLonandX  06:39+3806:40+381m12168.048594mCRJn Point Daund /Miraj /Pune, Maharashtra
42|--|WTRWathar  07:14+4007:15+411m12195.379799mCRSatara, Maharashtra
43|--|JSVJarandeshwar  07:29+4407:30+441m12213.615678mCRSH 61, Maharashtra
44|--|STRSatara (3)O  08:00+2308:03+243m12221.364637mCRSatara, Maharashtra
45|--|KRGKoregaonO  08:13+2708:14+301m12232.052658mCRKoregaon, Maharashtra
46|--|RMPRahimatpurXO  08:26+3108:27+321m12242.355626mCRSatara, Maharashtra
47|--|TAZTargaonO  08:39+3208:40+331m12253.464617mCRSatara, Maharashtra
48|--|MSRMasurO  08:52+3408:53+341m12266.238610mCRSatara, Maharashtra
49|--|KRDKarad (3)O  09:15+2609:18+263m12279.980597mCRDist- Satara., Maharashtra
50|--|BVNRBhavani NagarO  09:34+2809:35+301m12301.262578mCRTasgaon Rd, Maharashtra
51|--|TKRTakariO  09:41+3209:42+321m22307.331558mCRSangli, Maharashtra
52|--|KOVKirloskarvadiX  09:57+2709:58+311m12315.052570mCRSangli, Maharashtra
53|--|BVQBhilavdi  10:14+2810:15+291m12328.831570mCRSangli, Maharashtra
54|--|SLISangli (3)  10:52+1510:55+143m22347.922559mCRSangli, Maharashtra
55|--|MRJMiraj Junction (6)O  11:15+611:20+75m22355.259554mCRMiraj 416410, Maharashtra
56|--|JSPJayasingpurX  11:32+1211:33+141m22367.054550mCRJaysingpur, Maharashtra
57|--|HTKHatkanagale (2)XO  11:49+1311:50+151m12381.650591mCRDist. Kolhapur 416115, Maharashtra
58|--|RKDRukadi (1)O  11:59+1612:00+161m12389.044544mCRKolhapur, Maharashtra
59|--|VVValivade  12:09-12:10-1m12395.711554mCRValivade, Maharashtra
60|--|KOPKolhapur CSMT (3)  12:45-2-22402.3-563mCRKolhapur 416001, Maharashtra
Scroll to Top
Scroll to Bottom


Go to Mobile site